Nearby METAR Reports


RPLC - Angeles/Pampanga, Philippines
Distance from station: S 166km
Updated: Sat, 20-Jul-2019 5:00pm PST
Mostly cloudy
Mostly cloudy
 Wind from S
Wind: S 4 km/h
Temperature: 29°C
Heat Index: 36°C
Dew Point: 26°C
Humidity: 84%
Barometer: 1009 hPa
Clouds: Mostly cloudy
Visibility: 6 km
Cloud details: Few Clouds 457 m
Partly cloudy 610 m
Mostly cloudy 3048 m
2019/07/20 09:00 RPLC 200900Z 19002KT 6000 FEW015CB SCT020 BKN100 29/26 Q1009 RMK A2980 CB N
RPLI - Laoag Intl Airport, Philippines
Distance from station: N 171km
Updated: Sat, 20-Jul-2019 5:00pm PST
Nearby showers, Mostly cloudy
Nearby showers, Mostly cloudy
 Wind from SW
Wind: SW 13 km/h
Temperature: 30°C
Heat Index: 37°C
Dew Point: 26°C
Humidity: 79%
Barometer: 1008 hPa
Summary: Nearby Showers
Clouds: Mostly cloudy
Visibility: 8 km
Cloud details: Partly cloudy 518 m
Mostly cloudy 3048 m
2019/07/20 09:00 RPLI 200900Z 23007KT 8000 VCSH SCT017CB BKN100 30/26 Q1008 RMK A2977 CB E-SW
 
RPLB - Olongapo/Subic, Philippines
Distance from station: S 205km
Updated: Sat, 20-Jul-2019 5:00pm PST
Mostly cloudy
Mostly cloudy
 Wind from SW
Wind: SW 11 km/h
Temperature: 30°C
Heat Index: 37°C
Dew Point: 26°C
Humidity: 79%
Barometer: 1008 hPa
Clouds: Mostly cloudy
Visibility: 10 km
Cloud details: Few Clouds 610 m
Mostly cloudy 2438 m
2019/07/20 09:00 RPLB 200900Z 22006KT 9999 FEW020 BKN080 30/26 Q1008 NOSIG RMK A2977
RPLL - Ninoy Aquino Intl Airport, Philippines
Distance from station: SSE 247km
Updated: Sat, 20-Jul-2019 5:00pm PST
Mostly cloudy
Mostly cloudy
 Wind from W
Wind: W 19 km/h
Temperature: 31°C
Heat Index: 38°C
Dew Point: 25°C
Humidity: 70%
Barometer: 1007 hPa
Clouds: Mostly cloudy
Visibility: 10 km
Cloud details: Few Clouds 701 m
Mostly cloudy 9144 m
2019/07/20 09:00 RPLL 200900Z 27010KT 9999 FEW023TCU BKN300 31/25 Q1007 NOSIG RMK A2974 TCU SE